createdAt,value
2019-06-26T00:00:36.466Z,1009.41
2019-06-26T00:01:35.105Z,1009.39
2019-06-26T00:02:34.592Z,1009.33
2019-06-26T00:03:33.984Z,1009.34
2019-06-26T00:04:33.724Z,1009.24
2019-06-26T00:05:33.247Z,1009.40
2019-06-26T00:06:32.791Z,1009.37
2019-06-26T00:07:35.359Z,1009.43
2019-06-26T00:08:34.128Z,1009.38
2019-06-26T00:09:33.662Z,1009.38
2019-06-26T00:10:33.229Z,1009.47
2019-06-26T00:11:33.069Z,1009.39
2019-06-26T00:12:32.668Z,1009.39
2019-06-26T00:13:32.261Z,1009.40
2019-06-26T00:14:31.775Z,1009.49
2019-06-26T00:15:31.280Z,1009.44
2019-06-26T00:16:30.899Z,1009.48
2019-06-26T00:18:30.082Z,1009.45
2019-06-26T00:19:29.703Z,1009.54
2019-06-26T00:20:29.413Z,1009.59
2019-06-26T00:21:28.949Z,1009.60
2019-06-26T00:22:28.607Z,1009.62
2019-06-26T00:23:28.125Z,1009.53
2019-06-26T00:24:27.734Z,1009.51
2019-06-26T00:25:27.441Z,1009.56
2019-06-26T00:26:26.899Z,1009.53
2019-06-26T00:27:26.476Z,1009.54
2019-06-26T00:28:26.019Z,1009.53
2019-06-26T00:29:25.608Z,1009.51
2019-06-26T00:30:25.187Z,1009.54
2019-06-26T00:31:25.006Z,1009.50
2019-06-26T00:32:24.319Z,1009.53
2019-06-26T00:33:23.945Z,1009.53
2019-06-26T00:34:23.498Z,1009.58
2019-06-26T00:35:23.072Z,1009.57
2019-06-26T00:36:22.620Z,1009.48
2019-06-26T00:37:22.228Z,1009.57
2019-06-26T00:38:21.774Z,1009.56
2019-06-26T00:39:21.328Z,1009.56
2019-06-26T00:40:20.914Z,1009.51
2019-06-26T00:41:20.474Z,1009.57
2019-06-26T00:42:20.114Z,1009.58
2019-06-26T00:43:19.728Z,1009.56
2019-06-26T00:44:19.244Z,1009.69
2019-06-26T00:45:18.995Z,1009.64
2019-06-26T00:46:18.494Z,1009.65
2019-06-26T00:47:18.100Z,1009.72
2019-06-26T00:48:17.622Z,1009.65
2019-06-26T00:49:17.215Z,1009.61
2019-06-26T00:50:16.850Z,1009.65
2019-06-26T00:51:16.396Z,1009.69
2019-06-26T00:52:15.949Z,1009.66
2019-06-26T00:53:15.540Z,1009.71
2019-06-26T00:54:14.984Z,1009.64
2019-06-26T00:55:14.582Z,1009.61
2019-06-26T00:56:14.200Z,1009.67
2019-06-26T00:57:13.787Z,1009.65
2019-06-26T00:58:13.318Z,1009.59
2019-06-26T00:59:12.921Z,1009.57
2019-06-26T01:00:12.512Z,1009.61
2019-06-26T01:01:12.184Z,1009.59
2019-06-26T01:02:11.672Z,1009.58
2019-06-26T01:03:14.191Z,1009.62
2019-06-26T01:04:12.970Z,1009.63
2019-06-26T01:05:12.649Z,1009.65
2019-06-26T01:06:12.286Z,1009.63
2019-06-26T01:07:11.779Z,1009.68
2019-06-26T01:08:11.332Z,1009.67
2019-06-26T01:09:10.971Z,1009.68
2019-06-26T01:10:10.460Z,1009.68
2019-06-26T01:11:10.025Z,1009.64
2019-06-26T01:12:09.606Z,1009.74
2019-06-26T01:13:09.190Z,1009.65
2019-06-26T01:14:08.769Z,1009.63
2019-06-26T01:15:08.346Z,1009.73
2019-06-26T01:16:07.927Z,1009.71
2019-06-26T01:17:07.452Z,1009.62
2019-06-26T01:18:06.976Z,1009.74
2019-06-26T01:19:06.491Z,1009.62
2019-06-26T01:20:06.054Z,1009.63
2019-06-26T01:21:05.692Z,1009.62
2019-06-26T01:22:05.242Z,1009.66
2019-06-26T01:23:04.806Z,1009.67
2019-06-26T01:24:04.406Z,1009.63
2019-06-26T01:26:03.538Z,1009.67
2019-06-26T01:27:03.196Z,1009.68
2019-06-26T01:28:02.711Z,1009.64
2019-06-26T01:29:02.258Z,1009.67
2019-06-26T01:30:01.793Z,1009.58
2019-06-26T01:31:01.357Z,1009.62
2019-06-26T01:32:00.978Z,1009.63
2019-06-26T01:33:00.513Z,1009.58
2019-06-26T01:34:00.110Z,1009.55
2019-06-26T01:34:59.710Z,1009.56
2019-06-26T01:35:59.273Z,1009.64
2019-06-26T01:36:58.871Z,1009.67
2019-06-26T01:37:58.388Z,1009.61
2019-06-26T01:38:58.110Z,1009.64
2019-06-26T01:39:57.655Z,1009.68
2019-06-26T01:40:57.257Z,1009.70
2019-06-26T01:41:56.834Z,1009.69
2019-06-26T01:42:56.306Z,1009.67
2019-06-26T01:43:55.939Z,1009.69
2019-06-26T01:44:55.465Z,1009.66
2019-06-26T01:45:55.024Z,1009.67
2019-06-26T01:46:54.655Z,1009.73
2019-06-26T01:47:54.185Z,1009.63
2019-06-26T01:48:53.727Z,1009.65
2019-06-26T01:49:53.317Z,1009.70
2019-06-26T01:50:52.860Z,1009.65
2019-06-26T01:51:52.513Z,1009.70
2019-06-26T01:52:52.170Z,1009.71
2019-06-26T01:53:51.705Z,1009.68
2019-06-26T01:54:51.286Z,1009.69
2019-06-26T01:55:50.812Z,1009.78
2019-06-26T01:56:50.415Z,1009.75
2019-06-26T01:57:52.939Z,1009.73
2019-06-26T01:58:51.804Z,1009.81
2019-06-26T01:59:51.523Z,1009.72
2019-06-26T02:00:50.973Z,1009.77
2019-06-26T02:01:53.567Z,1009.71
2019-06-26T02:02:52.433Z,1009.74
2019-06-26T02:03:51.946Z,1009.73
2019-06-26T02:04:51.532Z,1009.73
2019-06-26T02:05:51.137Z,1009.78
2019-06-26T02:06:50.704Z,1009.79
2019-06-26T02:07:50.310Z,1009.75
2019-06-26T02:08:49.911Z,1009.78
2019-06-26T02:09:49.453Z,1009.78
2019-06-26T02:10:49.091Z,1009.78
2019-06-26T02:11:48.657Z,1009.80
2019-06-26T02:12:48.242Z,1009.73
2019-06-26T02:13:47.799Z,1009.67
2019-06-26T02:14:47.356Z,1009.76
2019-06-26T02:15:46.981Z,1009.78
2019-06-26T02:16:46.490Z,1009.68
2019-06-26T02:17:46.081Z,1009.74
2019-06-26T02:18:45.728Z,1009.81
2019-06-26T02:19:45.301Z,1009.75
2019-06-26T02:20:44.883Z,1009.72
2019-06-26T02:21:44.586Z,1009.77
2019-06-26T02:22:44.087Z,1009.74
2019-06-26T02:23:43.606Z,1009.65
2019-06-26T02:24:43.274Z,1009.69
2019-06-26T02:25:43.002Z,1009.67
2019-06-26T02:26:42.505Z,1009.62
2019-06-26T02:27:42.148Z,1009.66
2019-06-26T02:28:41.702Z,1009.61
2019-06-26T02:29:41.294Z,1009.68
2019-06-26T02:30:40.900Z,1009.67
2019-06-26T02:31:40.458Z,1009.67
2019-06-26T02:32:40.029Z,1009.70
2019-06-26T02:33:39.413Z,1009.66
2019-06-26T02:34:39.082Z,1009.66
2019-06-26T02:35:38.695Z,1009.69
2019-06-26T02:36:38.278Z,1009.62
2019-06-26T02:37:37.859Z,1009.71
2019-06-26T02:38:37.403Z,1009.68
2019-06-26T02:39:36.996Z,1009.68
2019-06-26T02:40:36.592Z,1009.68
2019-06-26T02:41:36.155Z,1009.70
2019-06-26T02:42:35.680Z,1009.67
2019-06-26T02:43:35.245Z,1009.69
2019-06-26T02:44:52.053Z,1009.62
2019-06-26T02:45:34.448Z,1009.63
2019-06-26T02:46:34.053Z,1009.70
2019-06-26T02:47:33.567Z,1009.75
2019-06-26T02:48:33.167Z,1009.73
2019-06-26T02:49:32.765Z,1009.71
2019-06-26T02:50:32.352Z,1009.73
2019-06-26T02:51:31.928Z,1009.68
2019-06-26T02:52:31.504Z,1009.76
2019-06-26T02:53:31.170Z,1009.72
2019-06-26T02:54:30.760Z,1009.80
2019-06-26T02:55:30.310Z,1009.81
2019-06-26T02:56:29.919Z,1009.83
2019-06-26T02:57:32.434Z,1009.75
2019-06-26T02:58:31.214Z,1009.75
2019-06-26T02:59:30.790Z,1009.78
2019-06-26T03:00:30.296Z,1009.86
2019-06-26T03:01:29.832Z,1009.85
2019-06-26T03:02:29.487Z,1009.85
2019-06-26T03:03:29.075Z,1009.79
2019-06-26T03:04:28.650Z,1009.83
2019-06-26T03:05:28.250Z,1009.88
2019-06-26T03:06:27.766Z,1009.96
2019-06-26T03:07:27.269Z,1009.95
2019-06-26T03:08:26.864Z,1009.87
2019-06-26T03:09:28.383Z,1009.96
2019-06-26T03:10:27.406Z,1009.99
2019-06-26T03:11:26.905Z,1009.94
2019-06-26T03:12:26.520Z,1009.95
2019-06-26T03:13:26.025Z,1009.95
2019-06-26T03:14:25.638Z,1009.99
2019-06-26T03:15:25.195Z,1010.04
2019-06-26T03:16:27.716Z,1010.02
2019-06-26T03:17:26.547Z,1010.02
2019-06-26T03:18:26.061Z,1010.00
2019-06-26T03:19:25.697Z,1010.09
2019-06-26T03:20:25.245Z,1010.05
2019-06-26T03:21:24.779Z,1010.10
2019-06-26T03:22:24.406Z,1010.08
2019-06-26T03:23:24.021Z,1010.16
2019-06-26T03:24:23.559Z,1010.18
2019-06-26T03:25:23.161Z,1010.15
2019-06-26T03:26:22.724Z,1010.14
2019-06-26T03:27:22.261Z,1010.17
2019-06-26T03:28:21.854Z,1010.07
2019-06-26T03:29:21.418Z,1010.16
2019-06-26T03:30:21.028Z,1010.14
2019-06-26T03:31:20.631Z,1010.09
2019-06-26T03:32:20.007Z,1010.11
2019-06-26T03:33:19.730Z,1010.16
2019-06-26T03:34:19.337Z,1010.06
2019-06-26T03:35:18.909Z,1010.09
2019-06-26T03:36:18.465Z,1010.10
2019-06-26T03:37:18.070Z,1010.09
2019-06-26T03:38:17.787Z,1010.08
2019-06-26T03:39:17.319Z,1010.17
2019-06-26T03:40:16.936Z,1010.16
2019-06-26T03:41:16.516Z,1010.09
2019-06-26T03:42:16.106Z,1010.19
2019-06-26T03:43:15.726Z,1010.07
2019-06-26T03:44:15.333Z,1010.16
2019-06-26T03:45:25.097Z,1010.16
2019-06-26T03:46:14.514Z,1010.23
2019-06-26T03:47:14.107Z,1010.17
2019-06-26T03:48:18.570Z,1010.31
2019-06-26T03:49:17.181Z,1010.27
2019-06-26T03:50:16.766Z,1010.29
2019-06-26T03:51:21.204Z,1010.23
2019-06-26T03:52:19.833Z,1010.25
2019-06-26T03:53:19.423Z,1010.13
2019-06-26T03:54:19.052Z,1010.19
2019-06-26T03:55:18.720Z,1010.30
2019-06-26T03:56:23.196Z,1010.28
2019-06-26T03:57:21.866Z,1010.24
2019-06-26T03:58:26.297Z,1010.27
2019-06-26T03:59:25.056Z,1010.24
2019-06-26T04:00:24.525Z,1010.32
2019-06-26T04:01:24.167Z,1010.28
2019-06-26T04:02:23.802Z,1010.36
2019-06-26T04:03:23.491Z,1010.31
2019-06-26T04:04:23.046Z,1010.35
2019-06-26T04:05:22.677Z,1010.30
2019-06-26T04:06:30.609Z,1010.32
2019-06-26T04:07:29.025Z,1010.36
2019-06-26T04:08:28.658Z,1010.31
2019-06-26T04:09:33.211Z,1010.35
2019-06-26T04:10:31.795Z,1010.36
2019-06-26T04:11:31.331Z,1010.39
2019-06-26T04:12:31.031Z,1010.35
2019-06-26T04:13:35.243Z,1010.44
2019-06-26T04:14:33.915Z,1010.34
2019-06-26T04:15:41.866Z,1010.41
2019-06-26T04:16:37.628Z,1010.42
2019-06-26T04:17:36.208Z,1010.33
2019-06-26T04:18:35.750Z,1010.32
2019-06-26T04:19:35.379Z,1010.33
2019-06-26T04:20:35.043Z,1010.31
2019-06-26T04:21:34.665Z,1010.36
2019-06-26T04:22:34.332Z,1010.31
2019-06-26T04:23:33.645Z,1010.35
2019-06-26T04:24:33.506Z,1010.36
2019-06-26T04:25:33.015Z,1010.34
2019-06-26T04:26:32.484Z,1010.38
2019-06-26T04:27:31.876Z,1010.45
2019-06-26T04:28:31.503Z,1010.46
2019-06-26T04:29:31.031Z,1010.44
2019-06-26T04:30:35.441Z,1010.42
2019-06-26T04:31:34.053Z,1010.44
2019-06-26T04:32:38.432Z,1010.44
2019-06-26T04:33:36.837Z,1010.34
2019-06-26T04:34:36.341Z,1010.41
2019-06-26T04:35:35.870Z,1010.36
2019-06-26T04:36:35.354Z,1010.39
2019-06-26T04:37:35.021Z,1010.41
2019-06-26T04:38:34.581Z,1010.40
2019-06-26T04:39:34.180Z,1010.53
2019-06-26T04:40:38.523Z,1010.46
2019-06-26T04:41:37.097Z,1010.52
2019-06-26T04:42:36.639Z,1010.48
2019-06-26T04:43:35.985Z,1010.53
2019-06-26T04:44:35.659Z,1010.53
2019-06-26T04:45:40.129Z,1010.45
2019-06-26T04:46:38.667Z,1010.47
2019-06-26T04:47:43.123Z,1010.55
2019-06-26T04:48:41.698Z,1010.55
2019-06-26T04:49:41.236Z,1010.59
2019-06-26T04:50:40.871Z,1010.57
2019-06-26T04:51:40.433Z,1010.59
2019-06-26T04:52:40.068Z,1010.54
2019-06-26T04:53:39.440Z,1010.51
2019-06-26T04:54:39.104Z,1010.58
2019-06-26T04:55:43.501Z,1010.55
2019-06-26T04:56:46.905Z,1010.58
2019-06-26T04:57:45.729Z,1010.63
2019-06-26T04:58:45.110Z,1010.57
2019-06-26T04:59:44.727Z,1010.61
2019-06-26T05:00:44.309Z,1010.61
2019-06-26T05:01:48.767Z,1010.65
2019-06-26T05:02:47.314Z,1010.58
2019-06-26T05:03:50.509Z,1010.66
2019-06-26T05:04:49.244Z,1010.63
2019-06-26T05:05:48.990Z,1010.75
2019-06-26T05:06:48.544Z,1010.75
2019-06-26T05:07:48.137Z,1010.70
2019-06-26T05:08:47.698Z,1010.61
2019-06-26T05:09:47.244Z,1010.70
2019-06-26T05:10:46.793Z,1010.71
2019-06-26T05:11:46.518Z,1010.78
2019-06-26T05:12:46.106Z,1010.72
2019-06-26T05:13:45.727Z,1010.82
2019-06-26T05:14:45.257Z,1010.84
2019-06-26T05:15:44.875Z,1010.83
2019-06-26T05:16:44.476Z,1010.89
2019-06-26T05:17:44.190Z,1010.93
2019-06-26T05:18:43.708Z,1010.85
2019-06-26T05:19:43.336Z,1010.79
2019-06-26T05:20:42.987Z,1010.81
2019-06-26T05:21:42.542Z,1010.86
2019-06-26T05:22:42.142Z,1010.81
2019-06-26T05:23:41.487Z,1010.96
2019-06-26T05:24:41.174Z,1010.91
2019-06-26T05:25:40.789Z,1010.99
2019-06-26T05:26:40.450Z,1010.94
2019-06-26T05:27:44.728Z,1010.92
2019-06-26T05:28:43.268Z,1011.06
2019-06-26T05:29:42.901Z,1010.98
2019-06-26T05:30:42.581Z,1011.02
2019-06-26T05:31:42.200Z,1011.00
2019-06-26T05:32:41.831Z,1010.91
2019-06-26T05:33:41.133Z,1010.96
2019-06-26T05:34:40.751Z,1010.95
2019-06-26T05:35:48.637Z,1010.83
2019-06-26T05:36:47.139Z,1010.85
2019-06-26T05:37:51.429Z,1010.96
2019-06-26T05:38:50.005Z,1010.92
2019-06-26T05:39:49.610Z,1010.90
2019-06-26T05:40:49.137Z,1010.96
2019-06-26T05:41:48.868Z,1010.93
2019-06-26T05:42:51.448Z,1010.92
2019-06-26T05:43:50.353Z,1010.99
2019-06-26T05:44:49.678Z,1010.95
2019-06-26T05:45:49.434Z,1010.90
2019-06-26T05:46:49.060Z,1011.01
2019-06-26T05:47:48.598Z,1011.07
2019-06-26T05:48:48.234Z,1011.12
2019-06-26T05:49:47.849Z,1011.05
2019-06-26T05:50:47.476Z,1011.05
2019-06-26T05:51:47.057Z,1011.09
2019-06-26T05:52:54.985Z,1011.06
2019-06-26T05:53:53.369Z,1011.08
2019-06-26T05:54:52.921Z,1011.10
2019-06-26T05:55:52.434Z,1011.09
2019-06-26T05:56:56.825Z,1011.13
2019-06-26T05:57:55.461Z,1011.11
2019-06-26T05:58:57.980Z,1011.13
2019-06-26T05:59:56.659Z,1011.09
2019-06-26T06:00:56.281Z,1011.10
2019-06-26T06:01:55.943Z,1011.14
2019-06-26T06:02:55.614Z,1011.15
2019-06-26T06:03:55.171Z,1011.07
2019-06-26T06:04:54.786Z,1011.07
2019-06-26T06:05:54.478Z,1011.13
2019-06-26T06:06:58.834Z,1011.15
2019-06-26T06:07:57.488Z,1011.11
2019-06-26T06:09:00.728Z,1011.09
2019-06-26T06:09:59.501Z,1011.07
2019-06-26T06:10:59.107Z,1011.12
2019-06-26T06:11:58.804Z,1011.08
2019-06-26T06:12:58.461Z,1011.07
2019-06-26T06:13:57.968Z,1010.98
2019-06-26T06:15:01.101Z,1011.02
2019-06-26T06:15:59.918Z,1011.10
2019-06-26T06:17:03.072Z,1010.99
2019-06-26T06:18:01.887Z,1011.07
2019-06-26T06:19:01.421Z,1011.20
2019-06-26T06:20:01.136Z,1011.11
2019-06-26T06:21:00.793Z,1011.13
2019-06-26T06:22:00.329Z,1011.09
2019-06-26T06:23:01.765Z,1011.18
2019-06-26T06:24:00.835Z,1011.09
2019-06-26T06:25:00.533Z,1011.16
2019-06-26T06:26:00.025Z,1011.20
2019-06-26T06:26:59.676Z,1011.12
2019-06-26T06:27:59.255Z,1011.16
2019-06-26T06:28:58.836Z,1011.14
2019-06-26T06:30:03.038Z,1011.18
2019-06-26T06:31:01.810Z,1011.14
2019-06-26T06:32:04.864Z,1011.14
2019-06-26T06:33:03.571Z,1011.13
2019-06-26T06:34:03.341Z,1011.19
2019-06-26T06:35:02.963Z,1011.16
2019-06-26T06:36:02.510Z,1011.13
2019-06-26T06:37:02.136Z,1011.18
2019-06-26T06:38:01.707Z,1011.23
2019-06-26T06:39:01.369Z,1011.17
2019-06-26T06:40:00.987Z,1011.21
2019-06-26T06:41:00.568Z,1011.23
2019-06-26T06:42:00.212Z,1011.20
2019-06-26T06:42:59.802Z,1011.24
2019-06-26T06:43:59.475Z,1011.26
2019-06-26T06:44:59.038Z,1011.31
2019-06-26T06:45:58.623Z,1011.25
2019-06-26T06:47:03.741Z,1011.25
2019-06-26T06:47:57.956Z,1011.33
2019-06-26T06:48:57.550Z,1011.32
2019-06-26T06:50:05.471Z,1011.33
2019-06-26T06:51:03.937Z,1011.35
2019-06-26T06:52:03.425Z,1011.38
2019-06-26T06:53:03.037Z,1011.36
2019-06-26T06:54:10.900Z,1011.35
2019-06-26T06:55:14.110Z,1011.42
2019-06-26T06:56:12.634Z,1011.43
2019-06-26T06:57:12.205Z,1011.43
2019-06-26T06:58:11.804Z,1011.51
2019-06-26T06:59:11.415Z,1011.50
2019-06-26T07:00:11.037Z,1011.45
2019-06-26T07:01:15.375Z,1011.44
2019-06-26T07:02:14.035Z,1011.44
2019-06-26T07:03:18.220Z,1011.45
2019-06-26T07:04:16.985Z,1011.52
2019-06-26T07:05:16.704Z,1011.45
2019-06-26T07:06:16.201Z,1011.49
2019-06-26T07:07:15.868Z,1011.51
2019-06-26T07:08:15.399Z,1011.56
2019-06-26T07:09:15.054Z,1011.55
2019-06-26T07:10:14.613Z,1011.55
2019-06-26T07:11:14.204Z,1011.57
2019-06-26T07:12:13.768Z,1011.52
2019-06-26T07:13:13.427Z,1011.50
2019-06-26T07:14:13.043Z,1011.56
2019-06-26T07:15:12.710Z,1011.58
2019-06-26T07:16:12.271Z,1011.58
2019-06-26T07:17:21.076Z,1011.57
2019-06-26T07:18:15.387Z,1011.57
2019-06-26T07:19:14.924Z,1011.61
2019-06-26T07:20:14.470Z,1011.63
2019-06-26T07:21:14.002Z,1011.60
2019-06-26T07:22:13.533Z,1011.58
2019-06-26T07:23:13.152Z,1011.59
2019-06-26T07:24:12.729Z,1011.63
2019-06-26T07:25:15.273Z,1011.66
2019-06-26T07:26:14.060Z,1011.62
2019-06-26T07:27:18.597Z,1011.62
2019-06-26T07:28:17.404Z,1011.67
2019-06-26T07:29:16.790Z,1011.66
2019-06-26T07:30:16.434Z,1011.65
2019-06-26T07:31:16.050Z,1011.66
2019-06-26T07:32:15.631Z,1011.68
2019-06-26T07:33:15.248Z,1011.71
2019-06-26T07:34:14.826Z,1011.67
2019-06-26T07:35:14.524Z,1011.66
2019-06-26T07:36:21.780Z,1011.76
2019-06-26T07:37:23.185Z,1011.69
2019-06-26T07:38:22.045Z,1011.68
2019-06-26T07:39:21.587Z,1011.77
2019-06-26T07:40:21.107Z,1011.83
2019-06-26T07:41:20.722Z,1011.80
2019-06-26T07:42:28.632Z,1011.79
2019-06-26T07:43:27.095Z,1011.85
2019-06-26T07:44:26.581Z,1011.80
2019-06-26T07:45:26.247Z,1011.83
2019-06-26T07:46:34.199Z,1011.80
2019-06-26T07:47:43.534Z,1011.84
2019-06-26T07:48:39.340Z,1011.82
2019-06-26T07:49:38.888Z,1011.82
2019-06-26T07:50:43.387Z,1011.79
2019-06-26T07:51:41.929Z,1011.84
2019-06-26T07:52:41.533Z,1011.89
2019-06-26T07:53:40.929Z,1011.87
2019-06-26T07:54:40.715Z,1011.84
2019-06-26T07:55:40.675Z,1011.86
2019-06-26T07:56:39.925Z,1011.94
2019-06-26T07:57:39.519Z,1011.89
2019-06-26T07:58:44.007Z,1011.88
2019-06-26T07:59:42.677Z,1011.88
2019-06-26T08:00:42.168Z,1011.89
2019-06-26T08:01:41.880Z,1011.79
2019-06-26T08:02:41.433Z,1011.76
2019-06-26T08:03:40.827Z,1011.87
2019-06-26T08:04:40.519Z,1011.81
2019-06-26T08:05:42.782Z,1011.83
2019-06-26T08:06:44.313Z,1011.86
2019-06-26T08:07:42.956Z,1011.81
2019-06-26T08:08:42.510Z,1011.79
2019-06-26T08:09:42.119Z,1011.88
2019-06-26T08:10:41.727Z,1011.80
2019-06-26T08:11:41.271Z,1011.82
2019-06-26T08:12:40.889Z,1011.80
2019-06-26T08:13:40.252Z,1011.82
2019-06-26T08:14:39.915Z,1011.81
2019-06-26T08:15:39.484Z,1011.76
2019-06-26T08:16:43.817Z,1011.75
2019-06-26T08:17:55.921Z,1011.80
2019-06-26T08:18:41.920Z,1011.80
2019-06-26T08:19:41.596Z,1011.82
2019-06-26T08:21:00.398Z,1011.88
2019-06-26T08:21:46.797Z,1011.79
2019-06-26T08:22:44.189Z,1011.82
2019-06-26T08:23:43.779Z,1011.83
2019-06-26T08:24:43.429Z,1011.81
2019-06-26T08:25:43.089Z,1011.83
2019-06-26T08:26:42.670Z,1011.82
2019-06-26T08:27:42.294Z,1011.82
2019-06-26T08:28:41.918Z,1011.86
2019-06-26T08:29:41.458Z,1011.91
2019-06-26T08:30:45.989Z,1011.93
2019-06-26T08:31:44.576Z,1012.01
2019-06-26T08:32:48.922Z,1011.95
2019-06-26T08:33:47.508Z,1011.97
2019-06-26T08:34:47.074Z,1011.94
2019-06-26T08:35:54.901Z,1011.92
2019-06-26T08:36:53.323Z,1011.93
2019-06-26T08:38:08.830Z,1011.94
2019-06-26T08:38:52.542Z,1011.95
2019-06-26T08:39:52.201Z,1011.99
2019-06-26T08:40:55.477Z,1011.90
2019-06-26T08:41:54.307Z,1011.91
2019-06-26T08:42:58.634Z,1011.94
2019-06-26T08:43:57.259Z,1011.83
2019-06-26T08:44:56.774Z,1011.86
2019-06-26T08:45:56.431Z,1011.94
2019-06-26T08:46:56.018Z,1011.88
2019-06-26T08:48:17.300Z,1011.85
2019-06-26T08:49:21.139Z,1011.91
2019-06-26T08:50:05.306Z,1011.85
2019-06-26T08:51:04.774Z,1011.88
2019-06-26T08:52:04.396Z,1011.81
2019-06-26T08:53:04.018Z,1011.86
2019-06-26T08:54:04.827Z,1011.87
2019-06-26T08:55:03.478Z,1011.86
2019-06-26T08:56:03.027Z,1011.90
2019-06-26T08:57:02.687Z,1011.89
2019-06-26T08:58:02.247Z,1011.90
2019-06-26T08:59:01.898Z,1011.89
2019-06-26T09:00:01.576Z,1011.93
2019-06-26T09:01:01.193Z,1011.93
2019-06-26T09:02:00.827Z,1011.85
2019-06-26T09:03:00.457Z,1011.91
2019-06-26T09:04:00.068Z,1011.76
2019-06-26T09:04:59.671Z,1011.73
2019-06-26T09:05:59.246Z,1011.92
2019-06-26T09:06:58.855Z,1011.92
2019-06-26T09:07:58.482Z,1011.85
2019-06-26T09:08:58.057Z,1011.91
2019-06-26T09:09:57.739Z,1011.83
2019-06-26T09:10:57.369Z,1011.89
2019-06-26T09:11:57.000Z,1011.88
2019-06-26T09:12:56.644Z,1011.77
2019-06-26T09:13:56.239Z,1011.83
2019-06-26T09:14:55.874Z,1011.85
2019-06-26T09:15:55.484Z,1011.77
2019-06-26T09:16:55.105Z,1011.78
2019-06-26T09:17:54.708Z,1011.81
2019-06-26T09:18:54.305Z,1011.74
2019-06-26T09:19:53.941Z,1011.71
2019-06-26T09:20:53.573Z,1011.76
2019-06-26T09:21:53.165Z,1011.65
2019-06-26T09:22:52.826Z,1011.69
2019-06-26T09:23:52.422Z,1011.63
2019-06-26T09:24:52.056Z,1011.67
2019-06-26T09:25:51.705Z,1011.65
2019-06-26T09:26:51.274Z,1011.74
2019-06-26T09:27:50.940Z,1011.69
2019-06-26T09:28:50.495Z,1011.68
2019-06-26T09:29:50.089Z,1011.69
2019-06-26T09:30:49.760Z,1011.70
2019-06-26T09:31:49.264Z,1011.69
2019-06-26T09:32:48.882Z,1011.73
2019-06-26T09:33:48.456Z,1011.83
2019-06-26T09:34:48.081Z,1011.65
2019-06-26T09:35:47.780Z,1011.74
2019-06-26T09:36:47.395Z,1011.69
2019-06-26T09:37:51.831Z,1011.74
2019-06-26T09:38:50.399Z,1011.74
2019-06-26T09:39:50.066Z,1011.65
2019-06-26T09:40:49.641Z,1011.76
2019-06-26T09:41:49.182Z,1011.76
2019-06-26T09:42:57.041Z,1011.74
2019-06-26T09:44:00.393Z,1011.73
2019-06-26T09:44:58.946Z,1011.76
2019-06-26T09:46:03.429Z,1011.68
2019-06-26T09:47:01.853Z,1011.72
2019-06-26T09:48:01.503Z,1011.72
2019-06-26T09:49:01.107Z,1011.76
2019-06-26T09:50:00.709Z,1011.78
2019-06-26T09:51:00.262Z,1011.79
2019-06-26T09:51:59.947Z,1011.69
2019-06-26T09:52:59.553Z,1011.70
2019-06-26T09:53:59.129Z,1011.67
2019-06-26T09:54:58.734Z,1011.70
2019-06-26T09:55:58.399Z,1011.67
2019-06-26T09:56:57.961Z,1011.63
2019-06-26T09:57:57.603Z,1011.69
2019-06-26T09:58:57.189Z,1011.72
2019-06-26T09:59:56.735Z,1011.74
2019-06-26T10:00:56.337Z,1011.67
2019-06-26T10:01:55.907Z,1011.62
2019-06-26T10:03:06.751Z,1011.72
2019-06-26T10:04:05.127Z,1011.72
2019-06-26T10:06:04.200Z,1011.75
2019-06-26T10:07:04.030Z,1011.69
2019-06-26T10:09:03.137Z,1011.72
2019-06-26T10:10:02.846Z,1011.69
2019-06-26T10:11:02.325Z,1011.69
2019-06-26T10:12:01.942Z,1011.69
2019-06-26T10:13:01.549Z,1011.68
2019-06-26T10:14:01.197Z,1011.75
2019-06-26T10:15:00.804Z,1011.74
2019-06-26T10:16:00.850Z,1011.71
2019-06-26T10:17:00.069Z,1011.69
2019-06-26T10:17:59.726Z,1011.74
2019-06-26T10:19:09.398Z,1011.69
2019-06-26T10:19:58.894Z,1011.73
2019-06-26T10:20:58.517Z,1011.78
2019-06-26T10:21:58.192Z,1011.72
2019-06-26T10:22:57.858Z,1011.70
2019-06-26T10:23:57.440Z,1011.72
2019-06-26T10:24:57.067Z,1011.72
2019-06-26T10:25:56.660Z,1011.65
2019-06-26T10:26:56.387Z,1011.72
2019-06-26T10:27:55.948Z,1011.71
2019-06-26T10:28:55.662Z,1011.67
2019-06-26T10:29:55.265Z,1011.74
2019-06-26T10:30:54.886Z,1011.73
2019-06-26T10:31:54.565Z,1011.73
2019-06-26T10:32:54.141Z,1011.73
2019-06-26T10:33:53.724Z,1011.74
2019-06-26T10:34:53.355Z,1011.80
2019-06-26T10:35:52.986Z,1011.79
2019-06-26T10:36:52.848Z,1011.74
2019-06-26T10:37:56.878Z,1011.75
2019-06-26T10:38:55.510Z,1011.75
2019-06-26T10:39:55.011Z,1011.79
2019-06-26T10:40:54.723Z,1011.77
2019-06-26T10:41:55.214Z,1011.72
2019-06-26T10:42:53.851Z,1011.59
2019-06-26T10:44:01.809Z,1011.60
2019-06-26T10:45:05.120Z,1011.71
2019-06-26T10:46:03.718Z,1011.58
2019-06-26T10:47:03.211Z,1011.67
2019-06-26T10:48:02.713Z,1011.67
2019-06-26T10:49:25.978Z,1011.68
2019-06-26T10:50:09.206Z,1011.68
2019-06-26T10:51:08.725Z,1011.72
2019-06-26T10:52:08.368Z,1011.76
2019-06-26T10:53:07.980Z,1011.73
2019-06-26T10:54:07.569Z,1011.78
2019-06-26T10:55:07.212Z,1011.79
2019-06-26T10:56:06.762Z,1011.73
2019-06-26T10:57:06.350Z,1011.77
2019-06-26T10:58:10.633Z,1011.77
2019-06-26T10:59:09.235Z,1011.74
2019-06-26T11:00:08.870Z,1011.75
2019-06-26T11:01:08.477Z,1011.64
2019-06-26T11:02:07.952Z,1011.64
2019-06-26T11:03:07.543Z,1011.59
2019-06-26T11:04:07.209Z,1011.60
2019-06-26T11:05:06.819Z,1011.65
2019-06-26T11:06:06.506Z,1011.58
2019-06-26T11:07:06.007Z,1011.68
2019-06-26T11:08:05.682Z,1011.72
2019-06-26T11:09:05.241Z,1011.61
2019-06-26T11:10:04.825Z,1011.50
2019-06-26T11:11:04.400Z,1011.49
2019-06-26T11:12:03.976Z,1011.51
2019-06-26T11:13:03.585Z,1011.44
2019-06-26T11:14:06.103Z,1011.39
2019-06-26T11:15:05.022Z,1011.50
2019-06-26T11:16:04.580Z,1011.53
2019-06-26T11:17:04.180Z,1011.46
2019-06-26T11:18:03.777Z,1011.44
2019-06-26T11:19:03.395Z,1011.44
2019-06-26T11:20:03.047Z,1011.45
2019-06-26T11:21:02.698Z,1011.41
2019-06-26T11:22:02.377Z,1011.41
2019-06-26T11:23:02.005Z,1011.35
2019-06-26T11:24:01.667Z,1011.37
2019-06-26T11:25:01.303Z,1011.32
2019-06-26T11:26:00.870Z,1011.33
2019-06-26T11:27:05.409Z,1011.30
2019-06-26T11:28:03.992Z,1011.37
2019-06-26T11:29:08.302Z,1011.34
2019-06-26T11:30:06.888Z,1011.33
2019-06-26T11:31:06.411Z,1011.33
2019-06-26T11:32:09.324Z,1011.27
2019-06-26T11:33:05.654Z,1011.29
2019-06-26T11:34:05.222Z,1011.30
2019-06-26T11:35:04.832Z,1011.28
2019-06-26T11:36:04.446Z,1011.32
2019-06-26T11:37:04.738Z,1011.34
2019-06-26T11:38:03.832Z,1011.29
2019-06-26T11:39:03.260Z,1011.29
2019-06-26T11:40:02.859Z,1011.29
2019-06-26T11:41:02.442Z,1011.23
2019-06-26T11:42:10.399Z,1011.25
2019-06-26T11:43:08.833Z,1011.20
2019-06-26T11:44:08.463Z,1011.22
2019-06-26T11:45:08.209Z,1011.22
2019-06-26T11:46:07.759Z,1011.24
2019-06-26T11:47:07.297Z,1011.21
2019-06-26T11:48:06.952Z,1011.20
2019-06-26T11:49:06.576Z,1011.22
2019-06-26T11:50:06.137Z,1011.18
2019-06-26T11:51:05.688Z,1011.22
2019-06-26T11:52:05.329Z,1011.23
2019-06-26T11:53:04.941Z,1011.14
2019-06-26T11:54:04.570Z,1011.16
2019-06-26T11:55:04.303Z,1011.14
2019-06-26T11:56:03.778Z,1011.21
2019-06-26T11:57:03.445Z,1011.15
2019-06-26T11:58:03.021Z,1011.11
2019-06-26T11:59:02.686Z,1011.07
2019-06-26T12:00:02.353Z,1011.12
2019-06-26T12:01:01.949Z,1011.08
2019-06-26T12:02:01.521Z,1011.15
2019-06-26T12:03:01.163Z,1011.11
2019-06-26T12:04:00.696Z,1010.99
2019-06-26T12:05:00.259Z,1011.08
2019-06-26T12:06:15.698Z,1011.04
2019-06-26T12:07:03.448Z,1010.95
2019-06-26T12:08:02.978Z,1010.99
2019-06-26T12:09:02.502Z,1011.07
2019-06-26T12:10:02.191Z,1011.12